Time;durP1;ratioP1;P1;durP2;ratioP2;P2;SDS_P1;SDS_P2;PMS_P1;PMS_P2;Temp;Humidity;BMP_temperature;BMP_pressure;BME280_temperature;BME280_humidity;BME280_pressure;Samples;Min_cycle;Max_cycle;Signal;HPM_P1;HPM_P2
2022/05/19 00:02:11;;;;;;;7.78;2.90;;;;;;;6.85;54.17;100512.41;1809722;78;20993;-62
2022/05/19 00:04:39;;;;;;;9.78;2.92;;;;;;;6.89;54.07;100507.58;1801155;78;20942;-61
2022/05/19 00:07:07;;;;;;;6.40;3.08;;;;;;;6.91;53.96;100507.53;1804140;77;21749;-61
2022/05/19 00:09:36;;;;;;;15.70;3.15;;;;;;;6.92;53.95;100504.92;1790480;79;20913;-62
2022/05/19 00:12:08;;;;;;;7.83;3.10;;;;;;;6.91;53.90;100500.59;1793549;78;21343;-62
2022/05/19 00:14:35;;;;;;;5.35;3.10;;;;;;;6.86;53.84;100504.17;1794946;78;20968;-62
2022/05/19 00:17:02;;;;;;;4.87;2.95;;;;;;;6.86;53.88;100502.45;1790316;78;21553;-61
2022/05/19 00:19:29;;;;;;;7.15;3.72;;;;;;;6.86;53.83;100503.75;1787901;78;21925;-61
2022/05/19 00:21:56;;;;;;;5.47;3.00;;;;;;;6.82;53.76;100498.19;1794530;78;20941;-61
2022/05/19 00:24:23;;;;;;;5.92;3.02;;;;;;;6.84;53.73;100495.13;1794062;78;20948;-62
2022/05/19 00:26:49;;;;;;;5.30;2.93;;;;;;;6.84;53.68;100486.05;1789720;78;20922;-61
2022/05/19 00:29:17;;;;;;;5.07;3.07;;;;;;;6.85;53.64;100492.94;1786144;79;20913;-62
2022/05/19 00:31:43;;;;;;;6.10;2.72;;;;;;;6.71;53.45;100476.78;1792566;79;21196;-61
2022/05/19 00:34:10;;;;;;;6.57;3.03;;;;;;;6.71;53.45;100476.78;1789877;78;21045;-62
2022/05/19 00:36:37;;;;;;;5.45;2.40;;;;;;;6.75;53.54;100494.02;1790297;79;21463;-61
2022/05/19 00:39:04;;;;;;;5.95;3.87;;;;;;;6.68;53.51;100487.22;1792435;78;20918;-61
2022/05/19 00:41:32;;;;;;;9.68;3.35;;;;;;;6.64;53.57;100482.54;1789070;78;20989;-61
2022/05/19 00:44:05;;;;;;;8.40;3.02;;;;;;;6.61;53.64;100488.20;1791034;78;21433;-61
2022/05/19 00:46:52;;;;;;;7.97;3.27;;;;;;;6.54;53.63;100490.52;1794255;79;20909;-61
2022/05/19 00:49:27;;;;;;;4.62;2.47;;;;;;;6.50;53.62;100489.28;1789383;78;21031;-61
2022/05/19 00:52:00;;;;;;;6.12;2.90;;;;;;;6.51;53.63;100482.34;1781286;79;20892;-61
2022/05/19 00:54:32;;;;;;;8.03;3.00;;;;;;;6.59;53.58;100473.13;1789836;79;21499;-61
2022/05/19 00:57:23;;;;;;;5.60;2.90;;;;;;;6.66;53.55;100476.01;1788517;79;21775;-61
2022/05/19 01:00:17;;;;;;;7.00;3.22;;;;;;;6.76;53.49;100468.47;1786835;78;20917;-61
2022/05/19 01:02:57;;;;;;;9.45;2.85;;;;;;;6.85;53.46;100468.27;1804085;78;20941;-62
2022/05/19 01:05:44;;;;;;;4.30;2.45;;;;;;;6.88;53.33;100466.91;1806580;78;20869;-61
2022/05/19 01:08:34;;;;;;;8.53;3.02;;;;;;;6.93;53.24;100459.89;1810175;77;21481;-61
2022/05/19 01:11:05;;;;;;;4.50;2.62;;;;;;;7.02;53.19;100457.99;1805820;77;20984;-61
2022/05/19 01:13:34;;;;;;;8.48;2.85;;;;;;;7.09;53.08;100455.69;1804449;77;21004;-61
2022/05/19 01:16:01;;;;;;;7.20;3.00;;;;;;;7.12;53.05;100459.52;1782910;77;20933;-61
2022/05/19 01:18:29;;;;;;;;;;;;;;;7.17;52.94;100460.28;1775955;79;21020;-62
2022/05/19 01:20:56;;;;;;;6.58;2.92;;;;;;;7.21;52.83;100455.42;1806638;78;20107;-61
2022/05/19 01:23:40;;;;;;;3.47;2.60;;;;;;;7.25;52.86;100456.20;1800639;79;21138;-61
2022/05/19 01:26:41;;;;;;;6.37;3.35;;;;;;;7.29;52.83;100456.55;1803801;78;20995;-62
2022/05/19 01:29:10;;;;;;;5.92;2.55;;;;;;;7.32;52.81;100457.33;1808886;78;20933;-61
2022/05/19 01:31:51;;;;;;;4.03;2.17;;;;;;;7.28;52.69;100460.91;1806763;78;20910;-61
2022/05/19 01:34:28;;;;;;;6.72;2.92;;;;;;;7.26;52.77;100456.17;1800528;78;20909;-61
2022/05/19 01:36:55;;;;;;;4.65;2.83;;;;;;;7.18;52.73;100456.78;1807867;78;21672;-61
2022/05/19 01:39:32;;;;;;;7.87;2.25;;;;;;;7.11;52.70;100457.37;1807286;78;20969;-62
2022/05/19 01:42:37;;;;;;;10.28;3.08;;;;;;;7.05;52.71;100451.44;1807507;78;21000;-62
2022/05/19 01:45:45;;;;;;;8.20;3.00;;;;;;;7.00;52.70;100453.27;1774383;79;21464;-62
2022/05/19 01:48:29;;;;;;;4.15;2.22;;;;;;;6.97;52.64;100462.42;1658403;84;21555;-61
2022/05/19 01:51:18;;;;;;;6.05;2.00;;;;;;;6.97;52.66;100458.08;1653153;84;21535;-61
2022/05/19 01:54:02;;;;;;;7.40;2.70;;;;;;;7.01;52.61;100453.70;1696311;83;20962;-61
2022/05/19 01:56:46;;;;;;;5.85;2.62;;;;;;;7.04;52.55;100448.44;1697078;82;21053;-61
2022/05/19 01:59:21;;;;;;;6.40;2.77;;;;;;;7.11;52.52;100448.28;1681072;83;20968;-61
2022/05/19 02:02:05;;;;;;;5.47;2.40;;;;;;;7.15;52.44;100454.26;1695627;82;20948;-61
2022/05/19 02:04:51;;;;;;;4.45;2.05;;;;;;;7.17;52.41;100447.30;1701152;82;21063;-62
2022/05/19 02:07:22;;;;;;;4.72;2.10;;;;;;;7.18;52.34;100441.20;1683265;83;20978;-61
2022/05/19 02:09:56;;;;;;;4.35;2.02;;;;;;;7.25;52.29;100442.76;1691254;84;20997;-61
2022/05/19 02:12:24;;;;;;;3.50;2.40;;;;;;;7.34;52.24;100451.67;1696558;83;21567;-61
2022/05/19 02:14:58;;;;;;;4.70;2.33;;;;;;;7.38;52.15;100441.60;1699373;82;20967;-61
2022/05/19 02:17:26;;;;;;;6.03;2.30;;;;;;;7.42;52.11;100446.73;1723783;82;21858;-61
2022/05/19 02:19:57;;;;;;;3.98;2.70;;;;;;;7.46;52.03;100435.39;1715462;82;20939;-61
2022/05/19 02:22:29;;;;;;;4.00;1.95;;;;;;;7.52;52.04;100440.44;1711084;82;21476;-61
2022/05/19 02:25:07;;;;;;;7.33;2.83;;;;;;;7.57;51.94;100438.59;1757038;79;20907;-61
2022/05/19 02:27:42;;;;;;;4.62;2.42;;;;;;;7.63;51.87;100436.69;1760984;79;21558;-61
2022/05/19 02:30:14;;;;;;;3.58;2.22;;;;;;;7.69;51.80;100427.89;1805979;78;21306;-61
2022/05/19 02:32:41;;;;;;;7.72;2.72;;;;;;;7.72;51.71;100433.02;1780347;79;20871;-61
2022/05/19 02:35:08;;;;;;;8.05;3.00;;;;;;;7.76;51.70;100429.47;1796135;78;21013;-62
2022/05/19 02:37:34;;;;;;;;;;;;;;;7.84;51.67;100429.26;1789911;79;20984;-61
2022/05/19 02:40:03;;;;;;;11.68;2.80;;;;;;;7.88;51.52;100428.76;1788524;78;20338;-62
2022/05/19 02:42:30;;;;;;;5.28;2.50;;;;;;;7.90;51.59;100428.25;1786590;79;21059;-61
2022/05/19 02:44:56;;;;;;;6.67;2.47;;;;;;;7.93;51.53;100434.25;1793742;78;21016;-61
2022/05/19 02:47:23;;;;;;;6.53;2.65;;;;;;;8.01;51.53;100436.64;1792646;79;21475;-61
2022/05/19 02:49:50;;;;;;;5.30;2.52;;;;;;;8.09;51.51;100436.00;1787045;78;20922;-62
2022/05/19 02:52:16;;;;;;;6.08;2.72;;;;;;;8.20;51.49;100432.67;1791757;79;20949;-61
2022/05/19 02:54:43;;;;;;;6.47;2.22;;;;;;;8.33;51.40;100432.37;1790261;78;21529;-62
2022/05/19 02:57:10;;;;;;;4.47;2.60;;;;;;;8.49;51.39;100433.70;1784739;78;20880;-61
2022/05/19 02:59:36;;;;;;;7.57;2.37;;;;;;;8.65;51.35;100429.75;1785789;79;21141;-62
2022/05/19 03:02:04;;;;;;;8.63;2.73;;;;;;;8.82;51.28;100426.70;1808846;78;20931;-61
2022/05/19 03:04:30;;;;;;;4.47;2.10;;;;;;;9.01;51.27;100428.30;1806637;78;21003;-62
2022/05/19 03:06:57;;;;;;;7.40;2.37;;;;;;;9.30;51.24;100430.47;1800357;78;21044;-61
2022/05/19 03:09:24;;;;;;;2.17;1.90;;;;;;;9.75;51.34;100432.55;1771826;79;20942;-62
2022/05/19 03:11:50;;;;;;;7.60;2.27;;;;;;;10.41;51.38;100427.27;1808789;78;21050;-61
2022/05/19 03:14:17;;;;;;;7.60;2.95;;;;;;;11.04;51.00;100430.67;1802128;78;20977;-62
2022/05/19 03:16:44;;;;;;;6.62;2.05;;;;;;;11.54;50.76;100427.82;1796562;78;21003;-61
2022/05/19 03:19:10;;;;;;;9.47;3.10;;;;;;;12.07;50.85;100427.41;1817189;77;21904;-62
2022/05/19 03:21:37;;;;;;;11.00;2.90;;;;;;;12.89;50.91;100424.73;1769982;79;21454;-62
2022/05/19 03:24:04;;;;;;;6.12;2.33;;;;;;;13.82;50.77;100414.20;1766156;79;20895;-62
2022/05/19 03:26:31;;;;;;;4.87;2.00;;;;;;;14.64;50.02;100413.53;1771444;79;21000;-63
2022/05/19 03:28:58;;;;;;;4.35;2.40;;;;;;;14.93;49.46;100412.83;1801626;78;21033;-62
2022/05/19 03:31:24;;;;;;;6.30;2.67;;;;;;;14.99;49.46;100414.28;1803943;78;20998;-62
2022/05/19 03:33:51;;;;;;;4.10;2.33;;;;;;;15.07;49.29;100416.47;1798904;78;21029;-62
2022/05/19 03:36:18;;;;;;;6.00;2.42;;;;;;;15.15;48.99;100416.89;1802465;78;20948;-62
2022/05/19 03:38:44;;;;;;;9.53;3.10;;;;;;;15.23;49.37;100417.32;1803828;78;20855;-63
2022/05/19 03:41:11;;;;;;;7.10;2.60;;;;;;;15.28;48.96;100415.29;1797905;78;21567;-62
2022/05/19 03:43:38;;;;;;;5.60;2.70;;;;;;;15.39;48.84;100410.27;1785628;78;21484;-62
2022/05/19 03:46:05;;;;;;;6.10;2.52;;;;;;;15.37;48.31;100416.08;1749908;78;20949;-62
2022/05/19 03:48:37;;;;;;;5.70;2.52;;;;;;;15.30;48.29;100416.06;1752138;80;20981;-62
2022/05/19 03:51:10;;;;;;;3.50;2.40;;;;;;;15.39;48.11;100407.64;1807838;79;20954;-62
2022/05/19 03:53:38;;;;;;;5.12;2.50;;;;;;;15.28;47.91;100417.92;1804353;78;20920;-62
2022/05/19 03:56:05;;;;;;;5.15;2.67;;;;;;;15.09;47.68;100411.98;1777123;79;21584;-62
2022/05/19 03:58:32;;;;;;;11.45;2.65;;;;;;;14.99;47.60;100407.23;1803072;78;21363;-62
2022/05/19 04:00:59;;;;;;;15.08;2.72;;;;;;;15.00;47.50;100408.91;1803752;78;20873;-62
2022/05/19 04:03:26;;;;;;;7.20;2.47;;;;;;;15.20;47.33;100403.87;1800838;77;21408;-62
2022/05/19 04:05:52;;;;;;;5.65;2.12;;;;;;;15.56;47.34;100405.37;1807211;78;20999;-62
2022/05/19 04:08:19;;;;;;;9.73;2.60;;;;;;;16.13;47.12;100395.50;1803200;78;21042;-63
2022/05/19 04:10:47;;;;;;;7.58;2.67;;;;;;;16.69;47.13;100401.78;1811040;78;21478;-63
2022/05/19 04:13:13;;;;;;;5.22;2.42;;;;;;;17.14;46.50;100394.59;1804106;78;20978;-62
2022/05/19 04:15:40;;;;;;;6.42;1.87;;;;;;;17.57;46.42;100390.95;1802218;78;20986;-63
2022/05/19 04:18:07;;;;;;;;;;;;;;;18.00;46.08;100392.91;1812846;78;20940;-63
2022/05/19 04:20:33;;;;;;;;;;;;;;;18.54;45.43;100399.35;1814624;77;21035;-63
2022/05/19 04:23:01;;;;;;;9.40;2.58;;;;;;;19.04;45.16;100396.73;1815938;77;20105;-63
2022/05/19 04:25:30;;;;;;;8.55;2.50;;;;;;;19.32;45.29;100392.93;1820278;77;21637;-63
2022/05/19 04:27:58;;;;;;;6.15;2.40;;;;;;;19.48;44.87;100394.47;1815122;77;20958;-64
2022/05/19 04:30:25;;;;;;;10.30;2.33;;;;;;;19.72;44.62;100387.39;1813125;78;20991;-63
2022/05/19 04:32:52;;;;;;;4.40;2.22;;;;;;;19.77;44.66;100384.38;1815865;78;21311;-64
2022/05/19 04:35:19;;;;;;;12.25;2.33;;;;;;;19.94;44.40;100383.09;1817908;78;20958;-63
2022/05/19 04:37:46;;;;;;;4.15;2.22;;;;;;;20.11;43.93;100391.96;1817083;77;20896;-63
2022/05/19 04:40:16;;;;;;;8.35;2.30;;;;;;;20.17;43.81;100386.67;1815563;78;20974;-63
2022/05/19 04:42:43;;;;;;;11.43;2.47;;;;;;;20.09;43.30;100395.20;1817771;77;20924;-63
2022/05/19 04:45:13;;;;;;;5.75;1.98;;;;;;;19.96;43.23;100388.65;1813920;78;21251;-62
2022/05/19 04:47:40;;;;;;;13.32;2.75;;;;;;;19.96;43.09;100387.33;1813276;78;21398;-63
2022/05/19 04:50:08;;;;;;;10.13;3.00;;;;;;;19.84;42.63;100386.45;1813833;78;20960;-63
2022/05/19 04:52:35;;;;;;;9.23;2.80;;;;;;;19.69;42.60;100390.27;1811926;78;20928;-63
2022/05/19 04:55:04;;;;;;;7.85;2.65;;;;;;;19.70;42.25;100394.59;1816671;77;21121;-63
2022/05/19 04:57:31;;;;;;;5.90;2.40;;;;;;;19.79;42.14;100393.90;1807996;78;21599;-61
2022/05/19 04:59:58;;;;;;;;;;;;;;;20.03;41.64;100388.56;1824149;77;20894;-62
2022/05/19 05:02:24;;;;;;;;;;;;;;;20.23;41.35;100385.70;1825329;78;20105;-63
2022/05/19 05:04:51;;;;;;;7.50;2.52;;;;;;;20.77;41.20;100389.49;1808683;77;20138;-63
2022/05/19 05:07:18;;;;;;;8.58;2.22;;;;;;;21.58;41.67;100382.93;1817430;77;20946;-64
2022/05/19 05:09:44;;;;;;;;;;;;;;;22.50;41.26;100386.30;1787092;78;21033;-64
2022/05/19 05:12:11;;;;;;;19.02;3.15;;;;;;;23.17;40.63;100386.19;1795504;78;20460;-64
2022/05/19 05:14:41;;;;;;;11.00;2.80;;;;;;;23.74;40.52;100380.56;1800257;78;21535;-63
2022/05/19 05:17:08;;;;;;;8.08;2.67;;;;;;;24.15;40.06;100381.22;1813023;78;21118;-64
2022/05/19 05:19:35;;;;;;;9.18;3.30;;;;;;;24.50;39.78;100377.05;1772560;80;21021;-64
2022/05/19 05:22:05;;;;;;;9.40;3.67;;;;;;;24.76;39.67;100380.75;1787363;79;22050;-64
2022/05/19 05:24:33;;;;;;;14.58;4.97;;;;;;;25.34;39.52;100377.39;1784249;79;20938;-64
2022/05/19 05:27:00;;;;;;;10.25;4.12;;;;;;;25.89;39.21;100374.57;1783607;79;20942;-64
2022/05/19 05:29:27;;;;;;;8.75;3.37;;;;;;;26.51;38.92;100379.33;1778169;79;21499;-64
2022/05/19 05:31:53;;;;;;;22.32;3.27;;;;;;;27.05;38.27;100380.88;1772218;79;20973;-65
2022/05/19 05:34:20;;;;;;;5.45;2.15;;;;;;;27.53;38.15;100382.00;1774782;79;20931;-65
2022/05/19 05:36:47;;;;;;;24.63;3.50;;;;;;;28.29;38.00;100384.34;1769174;79;21455;-64
2022/05/19 05:39:13;;;;;;;9.70;2.35;;;;;;;28.60;36.94;100382.27;1782845;78;20992;-64
2022/05/19 05:41:40;;;;;;;15.15;2.30;;;;;;;28.80;36.63;100380.50;1792608;78;20902;-63
2022/05/19 05:44:07;;;;;;;20.35;3.47;;;;;;;29.15;36.35;100378.64;1784718;78;21719;-64
2022/05/19 05:46:34;;;;;;;11.33;2.22;;;;;;;29.41;35.69;100372.11;1763738;79;21059;-63
2022/05/19 05:49:01;;;;;;;5.50;1.60;;;;;;;29.48;35.30;100370.36;1790268;78;20947;-63
2022/05/19 05:51:28;;;;;;;10.25;1.65;;;;;;;29.57;34.69;100371.96;1786865;78;21016;-64
2022/05/19 05:53:54;;;;;;;7.95;1.67;;;;;;;29.18;33.86;100366.22;1793573;78;21452;-62
2022/05/19 05:56:23;;;;;;;8.78;1.80;;;;;;;28.86;33.82;100374.42;1793592;79;20897;-64
2022/05/19 05:58:50;;;;;;;6.10;1.72;;;;;;;28.64;33.12;100371.48;1787743;78;20935;-65
2022/05/19 06:01:19;;;;;;;4.95;1.35;;;;;;;28.60;32.84;100370.17;1796116;78;21501;-64
2022/05/19 06:03:48;;;;;;;3.25;1.50;;;;;;;28.64;32.66;100370.14;1801507;78;21472;-64
2022/05/19 06:06:15;;;;;;;7.08;2.20;;;;;;;28.60;32.29;100372.03;1793337;78;20985;-65
2022/05/19 06:08:43;;;;;;;6.78;1.90;;;;;;;28.64;31.92;100370.14;1789996;78;21476;-66
2022/05/19 06:11:09;;;;;;;12.40;2.52;;;;;;;28.75;31.33;100371.10;1788638;78;21192;-67
2022/05/19 06:13:36;;;;;;;7.10;2.30;;;;;;;28.52;31.07;100368.34;1795931;78;20969;-65
2022/05/19 06:16:04;;;;;;;6.53;2.00;;;;;;;28.54;31.08;100371.70;1794797;78;20929;-65
2022/05/19 06:18:32;;;;;;;9.43;1.92;;;;;;;28.73;30.58;100370.43;1792885;78;20897;-66
2022/05/19 06:20:58;;;;;;;5.17;1.70;;;;;;;28.84;30.70;100371.90;1794012;78;21060;-66
2022/05/19 06:23:25;;;;;;;6.03;1.80;;;;;;;29.18;30.20;100366.22;1775884;80;21095;-67
2022/05/19 06:25:52;;;;;;;8.95;2.20;;;;;;;29.14;29.81;100363.53;1814453;77;20942;-63
2022/05/19 06:28:24;;;;;;;5.45;1.87;;;;;;;28.86;29.40;100369.05;1815925;78;20981;-63
2022/05/19 06:30:52;;;;;;;11.68;2.12;;;;;;;28.69;29.35;100366.44;1815863;78;20961;-63
2022/05/19 06:33:21;;;;;;;109.80;14.93;;;;;;;28.88;29.22;100368.38;1817694;78;20932;-63
2022/05/19 06:35:47;;;;;;;13.30;3.12;;;;;;;29.10;29.01;100364.06;1780839;78;21472;-63
2022/05/19 06:38:15;;;;;;;13.13;2.30;;;;;;;29.04;28.57;100362.91;1810751;77;21535;-63
2022/05/19 06:40:42;;;;;;;16.15;2.05;;;;;;;29.00;28.25;100361.58;1813672;78;20910;-63
2022/05/19 06:43:13;;;;;;;10.82;1.92;;;;;;;28.98;28.27;100355.02;1818537;78;20914;-63
2022/05/19 06:45:43;;;;;;;8.58;2.05;;;;;;;29.01;28.07;100357.35;1810519;78;21409;-63
2022/05/19 06:48:11;;;;;;;83.20;11.50;;;;;;;29.15;28.01;100350.41;1818823;77;21361;-63
2022/05/19 06:50:40;;;;;;;28.35;4.50;;;;;;;29.21;27.98;100347.03;1818670;78;20886;-63
2022/05/19 06:53:07;;;;;;;29.72;3.87;;;;;;;29.28;27.65;100351.69;1812901;78;20998;-63
2022/05/19 06:55:37;;;;;;;15.08;2.10;;;;;;;29.34;27.67;100348.28;1817330;78;20913;-63
2022/05/19 06:58:05;;;;;;;7.17;1.82;;;;;;;29.58;27.61;100349.95;1813775;78;20945;-63
2022/05/19 07:00:32;;;;;;;11.43;2.10;;;;;;;29.51;26.96;100343.61;1816752;77;21059;-64
2022/05/19 07:03:01;;;;;;;5.62;2.05;;;;;;;29.17;26.91;100343.02;1810483;77;20973;-63
2022/05/19 07:05:32;;;;;;;4.30;1.55;;;;;;;29.03;26.98;100341.09;1817649;77;20912;-64
2022/05/19 07:07:59;;;;;;;12.05;2.20;;;;;;;28.79;26.55;100343.36;1813740;78;20966;-63
2022/05/19 07:10:26;;;;;;;7.12;2.00;;;;;;;28.28;26.39;100341.02;1812396;78;20879;-64
2022/05/19 07:12:54;;;;;;;3.62;1.77;;;;;;;28.03;26.57;100338.90;1815272;77;21085;-64
2022/05/19 07:15:22;;;;;;;12.82;2.33;;;;;;;27.75;26.37;100339.75;1815934;78;20934;-64
2022/05/19 07:17:49;;;;;;;6.40;2.12;;;;;;;27.79;26.49;100334.42;1819960;77;21551;-69
2022/05/19 07:23:03;;;;;;;12.25;2.67;;;;;;;27.64;26.31;100334.72;1812542;78;20973;-64
2022/05/19 07:25:32;;;;;;;5.83;1.98;;;;;;;27.48;26.17;100340.12;1808129;78;21253;-63
2022/05/19 07:27:59;;;;;;;8.40;2.22;;;;;;;27.20;26.24;100331.87;1809571;77;21050;-63
2022/05/19 07:30:26;;;;;;;14.65;2.05;;;;;;;27.08;26.39;100330.97;1810011;78;20952;-64
2022/05/19 07:32:54;;;;;;;7.28;1.90;;;;;;;27.00;26.53;100328.63;1803716;78;21755;-64
2022/05/19 07:35:23;;;;;;;6.50;1.92;;;;;;;26.99;26.29;100326.92;1809410;77;21048;-63
2022/05/19 07:37:51;;;;;;;3.65;1.70;;;;;;;26.82;26.33;100329.23;1815169;78;21694;-64
2022/05/19 07:40:18;;;;;;;4.95;1.90;;;;;;;26.67;26.38;100337.06;1813582;77;21468;-64
2022/05/19 07:42:46;;;;;;;6.95;1.60;;;;;;;26.64;26.46;100336.56;1787210;78;20903;-64
2022/05/19 07:45:15;;;;;;;2.95;1.50;;;;;;;26.64;26.46;100332.03;1816361;78;21637;-63
2022/05/19 07:47:42;;;;;;;7.10;1.47;;;;;;;26.66;26.52;100324.66;1814601;78;20914;-62
2022/05/19 07:50:10;;;;;;;10.23;2.00;;;;;;;26.76;26.70;100328.55;1816768;78;21929;-62
2022/05/19 07:52:39;;;;;;;38.75;3.30;;;;;;;26.78;26.53;100326.56;1810103;78;21540;-64
2022/05/19 07:55:07;;;;;;;13.83;3.27;;;;;;;26.81;26.67;100326.23;1813060;78;20978;-64
2022/05/19 07:57:34;;;;;;;11.20;2.27;;;;;;;26.69;26.55;100324.83;1815161;78;20961;-63
2022/05/19 08:00:00;;;;;;;;;;;;;;;26.57;26.76;100324.30;1811955;78;20975;-62
2022/05/19 08:02:27;;;;;;;;;;;;;;;26.59;26.69;100318.79;1815817;78;22416;-62
2022/05/19 08:04:53;;;;;;;7.65;1.60;;;;;;;26.50;26.78;100316.08;1813626;77;20172;-63
2022/05/19 08:07:20;;;;;;;7.40;1.70;;;;;;;26.37;26.66;100306.27;1811418;78;21507;-62
2022/05/19 08:15:34;;;;;;;14.73;2.52;;;;;;;26.18;26.72;100297.14;1809115;78;21042;-64
2022/05/19 08:17:52;;;;;;;2.17;1.20;;;;;;;26.18;26.98;100295.30;1810557;78;20904;-64
2022/05/19 08:20:19;;;;;;;;;;;;;;;26.26;27.11;100285.98;1816208;78;20939;-64
2022/05/19 08:22:46;;;;;;;6.97;1.65;;;;;;;26.26;26.86;100283.80;1813378;78;20553;-65
2022/05/19 08:25:13;;;;;;;5.45;1.50;;;;;;;26.12;26.84;100283.40;1814848;77;21535;-64
2022/05/19 08:27:44;;;;;;;6.92;2.20;;;;;;;26.07;27.26;100283.03;1804497;77;22356;-64
2022/05/19 08:30:13;;;;;;;3.10;1.30;;;;;;;26.26;27.13;100277.11;1814996;77;20926;-64
2022/05/19 08:32:40;;;;;;;7.97;2.22;;;;;;;26.27;27.05;100281.45;1809681;78;20891;-64
2022/05/19 08:35:08;;;;;;;;;;;;;;;26.30;27.29;100270.45;1786209;78;20898;-64
2022/05/19 08:37:35;;;;;;;3.65;1.62;;;;;;;26.20;27.24;100272.41;1815366;77;20354;-65
2022/05/19 08:40:01;;;;;;;6.70;1.77;;;;;;;26.22;27.32;100271.76;1815497;78;21029;-64
2022/05/19 08:42:32;;;;;;;6.12;1.40;;;;;;;26.12;27.29;100271.36;1818205;77;21509;-63
2022/05/19 08:45:06;;;;;;;8.15;2.08;;;;;;;26.03;27.37;100272.32;1816258;77;21484;-64
2022/05/19 08:47:34;;;;;;;8.40;1.60;;;;;;;26.11;27.58;100273.70;1814154;78;20962;-64
2022/05/19 08:50:35;;;;;;;3.98;2.70;;;;;;;26.15;27.55;100265.35;1788124;78;20902;-64
2022/05/19 08:53:03;;;;;;;39.75;24.07;;;;;;;26.39;27.68;100262.79;1790347;78;21068;-64
2022/05/19 08:55:30;;;;;;;8.20;4.33;;;;;;;26.49;27.87;100264.81;1793469;79;21424;-63
2022/05/19 08:58:33;;;;;;;6.28;2.05;;;;;;;26.63;27.69;100266.56;1785683;78;20913;-63
2022/05/19 09:01:17;;;;;;;4.50;1.50;;;;;;;26.63;27.82;100267.91;1787631;79;20929;-64
2022/05/19 09:03:59;;;;;;;33.88;6.30;;;;;;;26.63;27.72;100270.58;1787819;79;21420;-63
2022/05/19 09:07:56;;;;;;;6.75;1.75;;;;;;;26.68;27.92;100273.11;1783166;78;21103;-64
2022/05/19 09:09:31;;;;;;;5.95;1.60;;;;;;;26.71;28.00;100270.09;1787914;78;21568;-63
2022/05/19 09:12:04;;;;;;;5.40;1.60;;;;;;;26.67;27.97;100268.77;1785499;78;20948;-67
2022/05/19 09:14:33;;;;;;;2.70;1.87;;;;;;;26.71;28.13;100266.59;1797887;78;20928;-63
2022/05/19 09:17:08;;;;;;;3.22;1.40;;;;;;;26.60;27.74;100269.57;1761562;79;20946;-63
2022/05/19 09:19:44;;;;;;;2.87;1.75;;;;;;;26.46;28.02;100258.44;1765919;79;21877;-63
2022/05/19 09:22:22;;;;;;;4.75;1.62;;;;;;;26.46;28.11;100257.61;1787314;79;20949;-64
2022/05/19 09:24:54;;;;;;;8.48;2.05;;;;;;;26.55;28.26;100254.84;1801295;78;21019;-63
2022/05/19 09:27:23;;;;;;;6.33;1.45;;;;;;;26.51;28.03;100253.48;1797539;77;20965;-63
2022/05/19 09:29:55;;;;;;;4.55;1.65;;;;;;;26.47;28.25;100256.12;1803448;77;21017;-62
2022/05/19 09:32:44;;;;;;;3.67;1.60;;;;;;;26.61;28.27;100252.48;1773419;78;21895;-66
2022/05/19 09:35:15;;;;;;;4.53;1.98;;;;;;;26.68;28.24;100249.00;1807109;77;20879;-63
2022/05/19 09:37:46;;;;;;;12.73;2.47;;;;;;;26.70;28.42;100250.19;1799134;78;21682;-63
2022/05/19 09:40:26;;;;;;;26.40;2.85;;;;;;;26.71;28.43;100246.50;1799270;77;20997;-64
2022/05/19 09:43:06;;;;;;;5.47;2.02;;;;;;;26.77;28.72;100244.49;1804731;77;20887;-64
2022/05/19 09:45:47;;;;;;;6.83;5.78;;;;;;;26.71;28.54;100250.52;1767924;79;21030;-63
2022/05/19 09:48:27;;;;;;;4.87;2.20;;;;;;;26.64;28.71;100252.19;1778298;79;21201;-63
2022/05/19 09:51:09;;;;;;;6.15;2.08;;;;;;;26.66;28.84;100244.81;1786969;78;20890;-63
2022/05/19 09:53:44;;;;;;;7.85;2.60;;;;;;;26.70;28.83;100248.85;1780180;79;20867;-64
2022/05/19 09:56:16;;;;;;;5.22;1.77;;;;;;;26.76;28.98;100248.19;1767124;80;21025;-63
2022/05/19 09:58:48;;;;;;;5.55;1.90;;;;;;;26.82;28.88;100246.19;1781478;79;21210;-64
2022/05/19 10:01:38;;;;;;;5.92;2.05;;;;;;;26.81;28.98;100241.01;1789258;79;21440;-63
2022/05/19 10:04:41;;;;;;;5.60;1.95;;;;;;;26.89;28.95;100232.48;1800210;78;20898;-63
2022/05/19 10:07:37;;;;;;;7.45;2.58;;;;;;;26.92;28.79;100224.11;1795020;79;21530;-63
2022/05/19 10:10:18;;;;;;;5.17;1.82;;;;;;;26.87;29.13;100233.64;1789965;78;21500;-63
2022/05/19 10:12:48;;;;;;;8.55;2.00;;;;;;;26.89;29.15;100223.61;1793786;78;21056;-64
2022/05/19 10:15:20;;;;;;;12.55;1.82;;;;;;;26.98;29.15;100220.75;1792936;79;20945;-63
2022/05/19 10:18:14;;;;;;;6.75;1.98;;;;;;;27.05;29.36;100225.44;1792584;78;20974;-64
2022/05/19 10:20:59;;;;;;;15.25;2.05;;;;;;;27.05;29.03;100222.76;1790865;79;20926;-62
2022/05/19 10:24:04;;;;;;;7.95;2.02;;;;;;;27.05;29.29;100214.72;1781806;79;20906;-63
2022/05/19 10:26:48;;;;;;;4.37;1.90;;;;;;;27.24;29.43;100210.39;1790325;79;21924;-63
2022/05/19 10:32:44;;;;;;;5.17;2.15;;;;;;;27.10;29.38;100207.85;1783989;79;20896;-63
2022/05/19 10:35:29;;;;;;;148.38;134.37;;;;;;;27.12;29.48;100205.02;1778969;79;20915;-63
2022/05/19 10:38:31;;;;;;;13.45;8.60;;;;;;;27.05;29.40;100199.47;1791165;78;20885;-63
2022/05/19 10:41:09;;;;;;;7.72;2.98;;;;;;;26.89;29.43;100197.64;1788306;79;21153;-65
2022/05/19 10:44:06;;;;;;;6.12;2.17;;;;;;;26.83;29.52;100188.94;1784528;78;20957;-64
2022/05/19 10:46:44;;;;;;;13.65;2.47;;;;;;;26.80;29.56;100181.20;1785627;78;21040;-64
2022/05/19 10:49:39;;;;;;;5.08;1.90;;;;;;;26.73;29.74;100190.93;1787613;79;20910;-63
2022/05/19 10:52:29;;;;;;;7.40;1.85;;;;;;;26.73;29.39;100178.88;1719815;82;21563;-63
2022/05/19 10:55:07;;;;;;;7.67;2.72;;;;;;;26.58;29.48;100183.19;1712391;81;21084;-63
2022/05/19 10:58:10;;;;;;;9.30;2.10;;;;;;;26.62;29.85;100175.18;1708954;81;21468;-66
2022/05/19 11:00:58;;;;;;;7.40;1.70;;;;;;;26.80;29.75;100181.20;1709611;82;20936;-65
2022/05/19 11:03:45;;;;;;;17.25;2.85;;;;;;;26.93;29.79;100172.18;1708188;81;21007;-65
2022/05/19 11:06:26;;;;;;;5.75;1.90;;;;;;;27.05;29.83;100182.56;1715576;81;21573;-62
2022/05/19 11:09:24;;;;;;;7.33;2.00;;;;;;;27.14;29.82;100172.16;1710013;81;21061;-62
2022/05/19 11:12:11;;;;;;;3.72;1.65;;;;;;;27.22;29.71;100157.44;1769226;78;21074;-62
2022/05/19 11:15:21;;;;;;;7.45;2.10;;;;;;;27.22;29.56;100162.80;1768477;79;20949;-62
2022/05/19 11:18:10;;;;;;;12.63;2.02;;;;;;;27.16;29.67;100159.47;1764492;80;20891;-61
2022/05/19 11:21:05;;;;;;;15.43;2.45;;;;;;;27.22;29.64;100154.28;1770021;78;21539;-62
2022/05/19 11:23:55;;;;;;;4.10;2.03;;;;;;;27.24;29.67;100159.46;1772490;79;21455;-62
2022/05/19 11:26:38;;;;;;;2.72;1.75;;;;;;;27.29;29.67;100162.47;1743291;80;20941;-63
2022/05/19 11:29:19;;;;;;;9.73;1.90;;;;;;;27.38;29.70;100160.10;1738559;81;20954;-63
2022/05/19 11:31:57;;;;;;;7.33;1.60;;;;;;;27.43;29.61;100152.38;1753420;80;21442;-63
2022/05/19 11:35:04;;;;;;;8.63;2.12;;;;;;;27.53;29.48;100145.98;1750355;80;20984;-63
2022/05/19 11:37:56;;;;;;;43.23;5.87;;;;;;;27.40;29.34;100152.73;1759010;80;22037;-64
2022/05/19 11:40:47;;;;;;;6.62;1.80;;;;;;;27.41;29.66;100149.03;1751263;80;21744;-62
2022/05/19 11:43:30;;;;;;;2.10;1.60;;;;;;;27.51;29.59;100139.98;1749627;81;20908;-63
2022/05/19 11:46:11;;;;;;;7.67;1.90;;;;;;;27.44;29.35;100141.15;1751823;81;21032;-62
2022/05/19 11:55:18;;;;;;;5.27;1.80;;;;;;;27.79;29.91;100121.60;1748982;80;21484;-63
2022/05/19 11:58:10;;;;;;;2.77;1.67;;;;;;;27.79;29.91;100121.60;1754311;81;21401;-62
2022/05/19 12:01:02;;;;;;;33.95;6.00;;;;;;;28.00;29.63;100114.30;1754689;80;21459;-62
2022/05/19 12:04:01;;;;;;;15.08;2.60;;;;;;;27.98;29.50;100113.64;1756057;80;21041;-63
2022/05/19 12:06:33;;;;;;;5.62;1.77;;;;;;;27.89;29.49;100100.25;1805727;77;21943;-62
2022/05/19 12:09:19;;;;;;;8.28;2.05;;;;;;;27.81;29.39;100103.48;1838907;76;20963;-62
2022/05/19 12:11:52;;;;;;;5.25;1.65;;;;;;;27.81;29.53;100104.35;1838388;77;20963;-63
2022/05/19 12:14:28;;;;;;;4.92;1.70;;;;;;;27.76;29.44;100093.27;1809089;77;38722;-63
2022/05/19 12:17:03;;;;;;;11.33;2.00;;;;;;;27.91;29.51;100095.24;1845316;75;20939;-62